createdAt,value
2019-03-23T00:01:56.252Z,10.20
2019-03-23T00:04:37.090Z,10.20
2019-03-23T00:07:17.563Z,10.30
2019-03-23T00:09:58.923Z,10.20
2019-03-23T00:12:40.119Z,10.20
2019-03-23T00:15:21.062Z,10.00
2019-03-23T00:18:02.064Z,10.00
2019-03-23T00:20:42.775Z,10.10
2019-03-23T00:23:23.501Z,10.30
2019-03-23T00:26:04.374Z,10.10
2019-03-23T00:28:45.025Z,10.10
2019-03-23T00:31:25.786Z,10.30
2019-03-23T00:34:06.467Z,10.30
2019-03-23T00:36:47.122Z,10.00
2019-03-23T00:39:27.740Z,10.30
2019-03-23T00:42:08.480Z,10.50
2019-03-23T00:44:49.373Z,10.50
2019-03-23T00:47:30.191Z,10.60
2019-03-23T00:50:11.012Z,10.70
2019-03-23T00:52:51.832Z,10.70
2019-03-23T00:55:32.399Z,10.50
2019-03-23T00:58:13.543Z,10.30
2019-03-23T01:00:54.217Z,10.40
2019-03-23T01:03:34.952Z,10.50
2019-03-23T01:06:15.905Z,10.30
2019-03-23T01:08:56.923Z,10.60
2019-03-23T01:11:37.805Z,10.10
2019-03-23T01:14:18.556Z,10.00
2019-03-23T01:16:58.988Z,10.10
2019-03-23T01:19:39.909Z,9.90
2019-03-23T01:22:20.813Z,9.90
2019-03-23T01:25:01.451Z,10.00
2019-03-23T01:30:24.493Z,10.00
2019-03-23T01:35:47.305Z,9.90
2019-03-23T01:38:29.980Z,10.00
2019-03-23T01:41:10.865Z,10.00
2019-03-23T01:43:51.522Z,10.00
2019-03-23T01:46:32.182Z,9.70
2019-03-23T01:49:13.097Z,9.60
2019-03-23T01:51:54.074Z,9.50
2019-03-23T01:54:34.868Z,9.40
2019-03-23T01:57:15.499Z,9.70
2019-03-23T01:59:56.010Z,9.80
2019-03-23T02:02:36.412Z,10.00
2019-03-23T02:05:16.973Z,10.20
2019-03-23T02:07:57.752Z,10.20
2019-03-23T02:10:41.793Z,9.80
2019-03-23T02:13:22.390Z,9.80
2019-03-23T02:16:03.155Z,9.80
2019-03-23T02:18:44.092Z,10.20
2019-03-23T02:21:24.932Z,10.10
2019-03-23T02:24:05.531Z,9.90
2019-03-23T02:26:46.197Z,9.70
2019-03-23T02:29:27.265Z,9.70
2019-03-23T02:32:07.940Z,9.60
2019-03-23T02:34:48.913Z,9.50
2019-03-23T02:37:30.209Z,9.60
2019-03-23T02:40:11.364Z,9.70
2019-03-23T02:42:51.812Z,9.70
2019-03-23T02:45:32.651Z,9.70
2019-03-23T02:48:13.582Z,9.70
2019-03-23T02:50:58.444Z,10.00
2019-03-23T02:53:39.057Z,10.00
2019-03-23T02:56:19.617Z,9.80
2019-03-23T02:59:00.148Z,10.10
2019-03-23T03:01:40.685Z,10.00
2019-03-23T03:04:21.416Z,9.90
2019-03-23T03:07:02.940Z,9.90
2019-03-23T03:09:44.045Z,9.80
2019-03-23T03:12:25.102Z,9.60
2019-03-23T03:15:06.021Z,9.80
2019-03-23T03:17:47.216Z,9.80
2019-03-23T03:20:28.838Z,10.00
2019-03-23T03:23:10.015Z,10.00
2019-03-23T03:25:51.540Z,9.80
2019-03-23T03:28:32.464Z,9.80
2019-03-23T03:31:13.167Z,9.80
2019-03-23T03:33:41.901Z,9.70
2019-03-23T03:36:30.337Z,9.60
2019-03-23T03:39:00.583Z,9.70
2019-03-23T03:41:48.746Z,9.60
2019-03-23T03:44:29.620Z,9.60
2019-03-23T03:46:58.243Z,9.60
2019-03-23T03:49:46.070Z,9.60
2019-03-23T03:52:33.905Z,9.50
2019-03-23T03:55:14.609Z,9.60
2019-03-23T03:57:55.650Z,9.60
2019-03-23T04:00:36.725Z,9.50
2019-03-23T04:03:17.118Z,9.80
2019-03-23T04:05:57.918Z,10.00
2019-03-23T04:08:39.086Z,10.00
2019-03-23T04:11:20.309Z,10.20
2019-03-23T04:14:01.138Z,9.90
2019-03-23T04:16:41.908Z,10.10
2019-03-23T04:19:22.842Z,10.00
2019-03-23T04:22:04.998Z,9.90
2019-03-23T04:24:45.390Z,9.80
2019-03-23T04:27:26.079Z,9.80
2019-03-23T04:30:06.841Z,9.60
2019-03-23T04:32:47.513Z,9.60
2019-03-23T04:35:28.433Z,9.50
2019-03-23T04:38:09.368Z,9.80
2019-03-23T04:40:50.521Z,9.70
2019-03-23T04:43:31.531Z,9.60
2019-03-23T04:46:12.176Z,9.70
2019-03-23T04:48:53.060Z,9.70
2019-03-23T04:51:33.754Z,9.80
2019-03-23T04:54:14.902Z,9.90
2019-03-23T04:56:55.647Z,9.80
2019-03-23T04:59:36.744Z,9.90
2019-03-23T05:02:17.661Z,10.00
2019-03-23T05:04:58.553Z,9.70
2019-03-23T05:07:39.336Z,9.70
2019-03-23T05:10:19.966Z,9.70
2019-03-23T05:13:01.286Z,9.60
2019-03-23T05:15:42.396Z,9.40
2019-03-23T05:18:23.181Z,9.40
2019-03-23T05:21:04.047Z,9.40
2019-03-23T05:23:45.906Z,9.40
2019-03-23T05:26:26.841Z,9.30
2019-03-23T05:29:08.880Z,9.40
2019-03-23T05:31:50.001Z,9.50
2019-03-23T05:34:30.909Z,9.50
2019-03-23T05:37:11.725Z,9.50
2019-03-23T05:39:52.655Z,9.40
2019-03-23T05:42:33.108Z,9.30
2019-03-23T05:45:14.209Z,9.40
2019-03-23T05:47:54.799Z,9.50
2019-03-23T05:50:35.521Z,9.40
2019-03-23T05:53:16.272Z,9.40
2019-03-23T05:55:57.039Z,9.40
2019-03-23T05:58:37.892Z,9.30
2019-03-23T06:01:18.684Z,9.30
2019-03-23T06:04:00.248Z,9.20
2019-03-23T06:06:41.141Z,9.20
2019-03-23T06:09:22.153Z,9.30
2019-03-23T06:12:04.869Z,9.40
2019-03-23T06:14:45.410Z,9.30
2019-03-23T06:17:25.974Z,9.40
2019-03-23T06:20:06.647Z,9.40
2019-03-23T06:22:47.257Z,9.30
2019-03-23T06:25:28.072Z,9.50
2019-03-23T06:28:08.977Z,9.40
2019-03-23T06:30:49.804Z,9.30
2019-03-23T06:33:30.809Z,9.30
2019-03-23T06:36:11.277Z,9.20
2019-03-23T06:38:51.536Z,9.30
2019-03-23T06:41:32.073Z,9.40
2019-03-23T06:44:12.501Z,9.60
2019-03-23T06:46:53.357Z,9.60
2019-03-23T06:49:34.155Z,9.40
2019-03-23T06:52:14.856Z,9.40
2019-03-23T06:54:55.914Z,9.40
2019-03-23T06:57:36.871Z,9.40
2019-03-23T07:00:17.599Z,9.40
2019-03-23T07:05:47.717Z,9.60
2019-03-23T07:08:32.188Z,9.50
2019-03-23T07:11:11.569Z,9.60
2019-03-23T07:13:52.321Z,9.60
2019-03-23T07:16:32.987Z,9.60
2019-03-23T07:19:13.941Z,9.60
2019-03-23T07:21:54.435Z,9.60
2019-03-23T07:24:35.376Z,9.50
2019-03-23T07:27:16.175Z,9.40
2019-03-23T07:29:57.019Z,9.40
2019-03-23T07:32:37.965Z,9.70
2019-03-23T07:38:01.535Z,9.70
2019-03-23T07:40:49.353Z,9.60
2019-03-23T07:43:37.175Z,9.70
2019-03-23T07:46:05.761Z,9.80
2019-03-23T07:48:53.670Z,9.90
2019-03-23T07:51:34.871Z,9.90
2019-03-23T07:54:15.478Z,10.10
2019-03-23T07:56:56.258Z,10.20
2019-03-23T07:59:37.558Z,10.30
2019-03-23T08:02:18.355Z,10.30
2019-03-23T08:04:59.245Z,10.10
2019-03-23T08:07:28.127Z,10.00
2019-03-23T08:10:27.262Z,10.10
2019-03-23T08:13:08.415Z,10.10
2019-03-23T08:15:49.689Z,10.20
2019-03-23T08:18:30.244Z,10.30
2019-03-23T08:21:11.054Z,10.50
2019-03-23T08:23:51.660Z,10.50
2019-03-23T08:26:32.550Z,10.40
2019-03-23T08:29:13.253Z,10.50
2019-03-23T08:31:54.526Z,10.40
2019-03-23T08:34:35.477Z,10.50
2019-03-23T08:37:44.019Z,10.30
2019-03-23T08:40:31.930Z,10.40
2019-03-23T08:43:12.581Z,10.40
2019-03-23T08:45:53.215Z,10.30
2019-03-23T08:48:34.189Z,10.30
2019-03-23T08:51:14.985Z,10.30
2019-03-23T08:53:55.651Z,10.50
2019-03-23T08:56:37.461Z,10.60
2019-03-23T08:59:17.983Z,10.70
2019-03-23T09:01:58.660Z,10.70
2019-03-23T09:04:39.672Z,10.50
2019-03-23T09:07:20.494Z,10.70
2019-03-23T09:10:01.481Z,10.90
2019-03-23T09:12:41.938Z,11.10
2019-03-23T09:15:22.546Z,11.10
2019-03-23T09:18:03.382Z,11.10
2019-03-23T09:20:43.850Z,11.30
2019-03-23T09:23:24.771Z,11.30
2019-03-23T09:26:05.568Z,11.30
2019-03-23T09:28:44.361Z,11.40
2019-03-23T09:31:23.305Z,11.30
2019-03-23T09:34:11.541Z,11.40
2019-03-23T09:36:52.525Z,11.40
2019-03-23T09:39:32.984Z,11.50
2019-03-23T09:42:14.050Z,11.50
2019-03-23T09:44:54.800Z,11.50
2019-03-23T09:47:35.743Z,11.30
2019-03-23T09:50:16.619Z,11.50
2019-03-23T09:52:57.705Z,11.40
2019-03-23T09:55:38.448Z,11.50
2019-03-23T09:58:19.299Z,11.60
2019-03-23T10:01:00.250Z,11.60
2019-03-23T10:03:42.875Z,11.70
2019-03-23T10:06:23.487Z,11.70
2019-03-23T10:09:04.696Z,11.70
2019-03-23T10:11:45.344Z,11.80
2019-03-23T10:14:26.407Z,11.50
2019-03-23T10:17:07.287Z,11.60
2019-03-23T10:19:48.218Z,11.70
2019-03-23T10:22:28.813Z,11.90
2019-03-23T10:25:09.559Z,11.80
2019-03-23T10:27:51.242Z,11.80
2019-03-23T10:30:31.880Z,12.10
2019-03-23T10:33:12.708Z,12.10
2019-03-23T10:35:53.295Z,12.20
2019-03-23T10:38:34.219Z,12.30
2019-03-23T10:41:15.213Z,12.30
2019-03-23T10:43:55.860Z,12.10
2019-03-23T10:46:36.842Z,12.10
2019-03-23T10:49:17.587Z,12.40
2019-03-23T10:51:58.479Z,12.40
2019-03-23T10:54:39.442Z,12.60
2019-03-23T10:57:20.573Z,12.50
2019-03-23T11:00:01.452Z,12.30
2019-03-23T11:02:42.356Z,12.50
2019-03-23T11:05:22.895Z,12.80
2019-03-23T11:08:03.364Z,12.80
2019-03-23T11:10:43.864Z,12.60
2019-03-23T11:13:24.510Z,12.60
2019-03-23T11:16:05.089Z,12.60
2019-03-23T11:18:45.714Z,12.70
2019-03-23T11:21:26.596Z,12.70
2019-03-23T11:24:07.307Z,12.80
2019-03-23T11:26:47.827Z,12.60
2019-03-23T11:29:28.903Z,12.60
2019-03-23T11:32:10.914Z,12.70
2019-03-23T11:34:51.878Z,12.80
2019-03-23T11:37:33.021Z,12.80
2019-03-23T11:40:14.103Z,12.70
2019-03-23T11:42:55.181Z,12.70
2019-03-23T11:45:35.996Z,12.80
2019-03-23T11:48:16.759Z,12.90
2019-03-23T11:50:57.679Z,12.80
2019-03-23T11:53:38.735Z,12.80
2019-03-23T11:56:20.532Z,13.00
2019-03-23T11:59:01.121Z,13.00
2019-03-23T12:01:51.513Z,13.00
2019-03-23T12:04:26.696Z,13.00
2019-03-23T12:07:08.520Z,13.10
2019-03-23T12:09:49.411Z,13.20
2019-03-23T12:12:32.305Z,13.00
2019-03-23T12:15:13.178Z,13.00
2019-03-23T12:17:54.346Z,13.10
2019-03-23T12:20:35.195Z,12.70
2019-03-23T12:23:16.069Z,12.90
2019-03-23T12:25:57.059Z,13.00
2019-03-23T12:28:37.753Z,12.90
2019-03-23T12:31:20.600Z,13.10
2019-03-23T12:34:00.701Z,12.90
2019-03-23T12:36:41.839Z,13.20
2019-03-23T12:39:22.763Z,13.10
2019-03-23T12:42:03.790Z,13.20
2019-03-23T12:44:44.124Z,13.20
2019-03-23T12:47:25.156Z,13.10
2019-03-23T12:50:06.309Z,13.30
2019-03-23T12:52:46.662Z,13.10
2019-03-23T12:55:27.558Z,13.10
2019-03-23T12:58:08.292Z,13.30
2019-03-23T13:00:48.955Z,13.20
2019-03-23T13:03:29.572Z,13.30
2019-03-23T13:06:10.430Z,13.40
2019-03-23T13:08:51.126Z,13.20
2019-03-23T13:11:35.694Z,13.20
2019-03-23T13:14:14.578Z,13.10
2019-03-23T13:16:55.162Z,13.10
2019-03-23T13:19:35.932Z,13.20
2019-03-23T13:22:16.744Z,13.40
2019-03-23T13:24:58.022Z,13.20
2019-03-23T13:27:38.536Z,13.40
2019-03-23T13:30:19.597Z,13.40
2019-03-23T13:33:00.172Z,13.40
2019-03-23T13:35:40.930Z,13.40
2019-03-23T13:38:23.083Z,13.50
2019-03-23T13:41:03.925Z,13.20
2019-03-23T13:43:44.456Z,13.20
2019-03-23T13:46:25.511Z,13.20
2019-03-23T13:49:06.027Z,13.20
2019-03-23T13:51:47.113Z,13.10
2019-03-23T13:54:28.836Z,12.80
2019-03-23T13:57:09.128Z,12.70
2019-03-23T14:02:51.238Z,12.60
2019-03-23T14:05:31.854Z,12.70
2019-03-23T14:08:12.787Z,12.60
2019-03-23T14:10:53.324Z,12.70
2019-03-23T14:13:33.907Z,12.50
2019-03-23T14:16:17.564Z,12.50
2019-03-23T14:18:58.289Z,12.40
2019-03-23T14:21:38.877Z,12.30
2019-03-23T14:24:19.396Z,12.30
2019-03-23T14:27:02.366Z,12.10
2019-03-23T14:29:45.360Z,12.20
2019-03-23T14:32:26.090Z,12.10
2019-03-23T14:35:07.003Z,12.20
2019-03-23T14:37:48.028Z,12.20
2019-03-23T14:40:29.107Z,12.20
2019-03-23T14:43:09.792Z,12.00
2019-03-23T14:45:50.503Z,12.00
2019-03-23T14:48:31.043Z,12.00
2019-03-23T14:51:11.808Z,12.00
2019-03-23T14:53:52.648Z,12.00
2019-03-23T14:56:33.770Z,12.10
2019-03-23T14:59:14.104Z,12.10
2019-03-23T15:01:54.833Z,12.00
2019-03-23T15:04:35.266Z,12.00
2019-03-23T15:07:16.212Z,12.00
2019-03-23T15:09:56.667Z,12.10
2019-03-23T15:12:37.571Z,12.00
2019-03-23T15:15:18.121Z,12.00
2019-03-23T15:17:59.002Z,12.00
2019-03-23T15:20:39.849Z,12.00
2019-03-23T15:23:21.002Z,12.10
2019-03-23T15:26:01.730Z,12.00
2019-03-23T15:28:43.738Z,12.30
2019-03-23T15:31:24.417Z,12.40
2019-03-23T15:34:05.158Z,12.30
2019-03-23T15:36:45.906Z,12.20
2019-03-23T15:39:26.835Z,12.30
2019-03-23T15:42:07.423Z,12.20
2019-03-23T15:44:48.109Z,12.20
2019-03-23T15:47:28.874Z,12.30
2019-03-23T15:50:10.391Z,12.20
2019-03-23T15:52:51.406Z,12.20
2019-03-23T15:58:44.709Z,12.30
2019-03-23T16:01:25.534Z,12.30
2019-03-23T16:04:06.104Z,12.20
2019-03-23T16:06:46.751Z,12.20
2019-03-23T16:09:27.345Z,12.00
2019-03-23T16:12:07.770Z,12.20
2019-03-23T16:14:48.640Z,12.20
2019-03-23T16:17:29.312Z,12.20
2019-03-23T16:20:10.041Z,12.10
2019-03-23T16:22:50.942Z,12.20
2019-03-23T16:25:31.926Z,12.20
2019-03-23T16:28:12.984Z,12.20
2019-03-23T16:30:53.957Z,12.00
2019-03-23T16:33:34.747Z,12.10
2019-03-23T16:36:15.265Z,12.00
2019-03-23T16:38:56.130Z,12.00
2019-03-23T16:41:36.774Z,12.10
2019-03-23T16:44:17.638Z,12.00
2019-03-23T16:46:58.510Z,12.00
2019-03-23T16:49:39.455Z,12.00
2019-03-23T16:52:21.369Z,11.90
2019-03-23T16:55:05.148Z,11.80
2019-03-23T17:00:58.436Z,11.70
2019-03-23T17:03:46.225Z,11.70
2019-03-23T17:06:34.046Z,11.80
2019-03-23T17:09:18.196Z,11.70
2019-03-23T17:11:59.308Z,11.70
2019-03-23T17:14:40.363Z,11.70
2019-03-23T17:17:21.298Z,11.80
2019-03-23T17:20:02.101Z,11.70
2019-03-23T17:22:43.053Z,11.70
2019-03-23T17:25:23.879Z,11.70
2019-03-23T17:28:05.994Z,11.70
2019-03-23T17:30:49.713Z,11.50
2019-03-23T17:33:30.084Z,11.60
2019-03-23T17:36:10.818Z,11.60
2019-03-23T17:38:51.249Z,11.60
2019-03-23T17:44:19.863Z,11.40
2019-03-23T17:47:00.667Z,11.30
2019-03-23T17:49:42.680Z,11.30
2019-03-23T17:52:23.584Z,11.40
2019-03-23T17:55:03.948Z,11.40
2019-03-23T17:57:44.539Z,11.40
2019-03-23T18:03:14.760Z,11.40
2019-03-23T18:05:56.152Z,11.30
2019-03-23T18:08:36.992Z,11.30
2019-03-23T18:11:17.653Z,11.10
2019-03-23T18:13:58.809Z,11.10
2019-03-23T18:16:40.302Z,11.10
2019-03-23T18:19:21.215Z,11.20
2019-03-23T18:22:02.433Z,11.10
2019-03-23T18:27:29.090Z,11.00
2019-03-23T18:30:09.615Z,11.00
2019-03-23T18:32:50.151Z,10.90
2019-03-23T18:35:31.148Z,10.90
2019-03-23T18:38:11.606Z,10.90
2019-03-23T18:40:55.680Z,10.80
2019-03-23T18:43:36.821Z,10.80
2019-03-23T18:46:17.399Z,10.80
2019-03-23T18:48:58.035Z,10.90
2019-03-23T18:51:38.517Z,10.90
2019-03-23T18:54:19.223Z,10.60
2019-03-23T18:57:01.276Z,10.20
2019-03-23T18:59:18.272Z,10.20
2019-03-23T19:02:06.163Z,10.40
2019-03-23T19:04:47.018Z,10.50
2019-03-23T19:07:32.334Z,10.40
2019-03-23T19:10:13.675Z,10.30
2019-03-23T19:12:54.438Z,10.10
2019-03-23T19:15:35.398Z,10.10
2019-03-23T19:18:16.241Z,10.10
2019-03-23T19:20:58.661Z,10.00
2019-03-23T19:23:41.146Z,10.10
2019-03-23T19:29:00.605Z,10.00
2019-03-23T19:31:41.448Z,9.80
2019-03-23T19:34:25.213Z,9.80
2019-03-23T19:39:47.907Z,9.60
2019-03-23T19:42:28.436Z,9.60
2019-03-23T19:45:10.355Z,9.50
2019-03-23T19:50:35.824Z,9.50
2019-03-23T19:53:16.798Z,9.30
2019-03-23T19:55:57.647Z,9.10
2019-03-23T19:58:38.545Z,9.20
2019-03-23T20:01:19.315Z,9.00
2019-03-23T20:04:00.180Z,8.90
2019-03-23T20:06:41.344Z,8.90
2019-03-23T20:09:21.816Z,8.90
2019-03-23T20:12:02.457Z,8.90
2019-03-23T20:14:43.753Z,8.90
2019-03-23T20:17:24.247Z,8.70
2019-03-23T20:20:05.106Z,8.90
2019-03-23T20:22:45.625Z,8.80
2019-03-23T20:25:26.348Z,8.80
2019-03-23T20:28:07.064Z,8.80
2019-03-23T20:30:48.178Z,8.60
2019-03-23T20:33:28.705Z,8.50
2019-03-23T20:36:09.443Z,8.50
2019-03-23T20:38:50.507Z,8.40
2019-03-23T20:41:31.234Z,8.40
2019-03-23T20:44:12.218Z,8.40
2019-03-23T20:46:52.796Z,8.30
2019-03-23T20:49:33.575Z,8.30
2019-03-23T20:52:13.889Z,8.20
2019-03-23T20:54:54.623Z,8.20
2019-03-23T20:57:37.690Z,8.20
2019-03-23T21:00:19.679Z,8.30
2019-03-23T21:03:03.697Z,8.30
2019-03-23T21:08:28.518Z,8.30
2019-03-23T21:13:51.598Z,8.20
2019-03-23T21:16:34.250Z,8.20
2019-03-23T21:19:15.245Z,8.30
2019-03-23T21:21:56.119Z,8.20
2019-03-23T21:27:22.721Z,8.30
2019-03-23T21:30:03.773Z,8.30
2019-03-23T21:32:44.557Z,8.30
2019-03-23T21:35:24.960Z,8.40
2019-03-23T21:38:05.906Z,8.50
2019-03-23T21:40:46.299Z,8.40
2019-03-23T21:43:26.885Z,8.40
2019-03-23T21:48:51.466Z,8.30
2019-03-23T21:51:32.199Z,8.40
2019-03-23T21:54:13.071Z,8.20
2019-03-23T21:56:53.515Z,8.30
2019-03-23T21:59:34.748Z,8.30
2019-03-23T22:02:16.940Z,8.20
2019-03-23T22:04:45.420Z,8.00
2019-03-23T22:07:33.210Z,8.00
2019-03-23T22:10:13.838Z,7.90
2019-03-23T22:12:54.798Z,8.00
2019-03-23T22:15:35.470Z,8.10
2019-03-23T22:18:16.382Z,7.90
2019-03-23T22:20:57.702Z,7.90
2019-03-23T22:23:38.555Z,8.00
2019-03-23T22:26:19.105Z,7.80
2019-03-23T22:28:59.754Z,7.90
2019-03-23T22:31:40.482Z,7.90
2019-03-23T22:34:21.196Z,7.90
2019-03-23T22:37:02.249Z,7.90
2019-03-23T22:39:42.874Z,7.80
2019-03-23T22:42:23.911Z,7.90
2019-03-23T22:45:04.291Z,7.70
2019-03-23T22:47:45.144Z,7.60
2019-03-23T22:50:26.125Z,7.80
2019-03-23T22:53:06.978Z,7.70
2019-03-23T22:55:47.836Z,7.80
2019-03-23T22:58:28.572Z,7.60
2019-03-23T23:01:09.373Z,7.50
2019-03-23T23:03:49.984Z,7.50
2019-03-23T23:06:29.249Z,7.60
2019-03-23T23:09:17.143Z,7.50
2019-03-23T23:11:57.646Z,7.60
2019-03-23T23:14:38.268Z,7.40
2019-03-23T23:17:19.385Z,7.50
2019-03-23T23:20:00.311Z,7.50
2019-03-23T23:22:41.232Z,7.40
2019-03-23T23:25:22.001Z,7.50
2019-03-23T23:28:02.940Z,7.50
2019-03-23T23:30:43.603Z,7.40
2019-03-23T23:33:24.088Z,7.50
2019-03-23T23:36:05.156Z,7.50
2019-03-23T23:38:45.475Z,7.40
2019-03-23T23:41:26.332Z,7.30
2019-03-23T23:44:07.368Z,7.40
2019-03-23T23:46:48.204Z,7.50
2019-03-23T23:49:29.224Z,7.50
2019-03-23T23:52:09.875Z,7.60
2019-03-23T23:54:50.567Z,7.60
2019-03-23T23:57:31.064Z,7.50
